DFFD

Ouagadougou International Airport

Airport
ICAO code
DFFD
IATA Code
OUA
Summary
ICAO Region
AFI
ICAO Territory
Location

Ouagadougou,

Serving
Ouagadougou
Elevation
1037 ft
Coordinates
12° 21' 13" N , 1° 30' 43" W
Metar
Observation
DFFD 071900Z 07002KT 9000 FEW020 28/22 Q1011 NOSIG
Station
Ouagadougou
Date/Time
2022-10-07 19:00:00
Wind direction
70°
Wind speed
02 kts
Lowest cloud amount
few clouds
Temperature
28°C
Dew point
22°C
Humidity
69%
QNH
1011 hPa
Weather condition
n/a

Description

Ouagadougou International Airport is an airport located in the centre of the city of Ouagadougou in Burkina Faso.

Runways

Designator Length Width Surface Rops
04R/22L 1911 30 LAT Yes/Yes
04L/22R 3028 45 ASP Yes/Yes

Airport map

Aerial View

SKYbrary Partners:

Safety knowledge contributed by: